createdAt,value
2023-05-10T00:02:17.702Z,2.37
2023-05-10T00:04:48.631Z,2.03
2023-05-10T00:07:19.935Z,2.33
2023-05-10T00:09:50.849Z,2.70
2023-05-10T00:12:22.225Z,2.70
2023-05-10T00:14:55.853Z,3.53
2023-05-10T00:17:26.983Z,4.23
2023-05-10T00:19:58.628Z,4.07
2023-05-10T00:22:29.574Z,4.03
2023-05-10T00:25:00.477Z,3.70
2023-05-10T00:27:31.371Z,4.00
2023-05-10T00:30:04.923Z,4.17
2023-05-10T00:32:35.892Z,4.37
2023-05-10T00:35:07.448Z,4.87
2023-05-10T00:37:38.461Z,4.23
2023-05-10T00:40:11.181Z,4.97
2023-05-10T00:42:42.126Z,5.67
2023-05-10T00:45:15.773Z,6.47
2023-05-10T00:47:46.740Z,6.13
2023-05-10T00:50:19.312Z,6.60
2023-05-10T00:52:50.385Z,6.63
2023-05-10T00:55:22.658Z,9.27
2023-05-10T00:57:53.626Z,6.90
2023-05-10T01:00:27.226Z,6.83
2023-05-10T01:02:58.340Z,7.37
2023-05-10T01:05:29.415Z,6.60
2023-05-10T01:08:00.691Z,8.53
2023-05-10T01:10:31.590Z,6.80
2023-05-10T01:13:04.289Z,10.93
2023-05-10T01:15:38.533Z,9.37
2023-05-10T01:18:09.821Z,8.33
2023-05-10T01:20:47.133Z,7.93
2023-05-10T01:23:42.852Z,9.30
2023-05-10T01:26:50.989Z,8.10
2023-05-10T01:30:05.919Z,8.73
2023-05-10T01:32:54.197Z,9.90
2023-05-10T01:35:30.844Z,10.63
2023-05-10T01:38:16.273Z,12.43
2023-05-10T01:40:56.097Z,13.97
2023-05-10T01:43:32.462Z,11.20
2023-05-10T01:46:11.577Z,10.77
2023-05-10T01:48:51.951Z,12.23
2023-05-10T01:51:27.788Z,12.10
2023-05-10T01:54:05.367Z,11.70
2023-05-10T01:56:38.881Z,9.23
2023-05-10T01:59:15.263Z,9.20
2023-05-10T02:01:48.166Z,6.70
2023-05-10T02:04:23.114Z,6.17
2023-05-10T02:06:55.379Z,6.10
2023-05-10T02:09:27.913Z,5.93
2023-05-10T02:12:00.998Z,7.80
2023-05-10T02:14:32.813Z,5.57
2023-05-10T02:17:05.245Z,6.50
2023-05-10T02:19:42.613Z,5.87
2023-05-10T02:22:14.265Z,5.40
2023-05-10T02:24:45.978Z,6.27
2023-05-10T02:27:19.416Z,4.10
2023-05-10T02:29:51.697Z,3.93
2023-05-10T02:32:23.274Z,4.83
2023-05-10T02:34:57.294Z,3.00
2023-05-10T02:37:29.070Z,2.63
2023-05-10T02:40:04.368Z,4.13
2023-05-10T02:42:38.916Z,2.90
2023-05-10T02:45:15.896Z,3.73
2023-05-10T02:47:47.262Z,2.67
2023-05-10T02:50:20.956Z,2.30
2023-05-10T02:52:55.569Z,4.03
2023-05-10T02:55:33.391Z,2.77
2023-05-10T02:58:05.320Z,2.43
2023-05-10T03:00:36.677Z,4.40
2023-05-10T03:03:07.957Z,7.80
2023-05-10T03:05:41.683Z,4.03
2023-05-10T03:08:13.102Z,3.17
2023-05-10T03:10:54.523Z,3.10
2023-05-10T03:13:36.465Z,3.00
2023-05-10T03:16:12.876Z,3.13
2023-05-10T03:18:48.055Z,3.33
2023-05-10T03:21:24.649Z,5.13
2023-05-10T03:24:02.572Z,4.33
2023-05-10T03:26:34.230Z,5.43
2023-05-10T03:29:06.077Z,5.00
2023-05-10T03:31:37.345Z,5.53
2023-05-10T03:34:08.483Z,6.33
2023-05-10T03:36:41.948Z,9.40
2023-05-10T03:39:12.810Z,8.07
2023-05-10T03:41:43.798Z,11.33
2023-05-10T03:44:14.680Z,13.20
2023-05-10T03:46:45.910Z,13.20
2023-05-10T03:49:16.923Z,13.33
2023-05-10T03:51:50.666Z,13.93
2023-05-10T03:54:21.718Z,13.87
2023-05-10T03:56:52.889Z,14.20
2023-05-10T03:59:23.885Z,17.30
2023-05-10T04:01:54.870Z,17.87
2023-05-10T04:04:26.052Z,18.17
2023-05-10T04:06:59.553Z,21.00
2023-05-10T04:09:30.500Z,17.20
2023-05-10T04:12:03.499Z,18.30
2023-05-10T04:14:34.596Z,17.60
2023-05-10T04:17:05.614Z,16.77
2023-05-10T04:19:37.271Z,19.23
2023-05-10T04:22:10.773Z,16.93
2023-05-10T04:24:41.697Z,15.40
2023-05-10T04:27:12.644Z,17.90
2023-05-10T04:29:43.941Z,17.70
2023-05-10T04:32:14.998Z,15.67
2023-05-10T04:34:45.887Z,14.33
2023-05-10T04:37:20.023Z,15.33
2023-05-10T04:39:51.399Z,16.50
2023-05-10T04:42:22.304Z,14.33
2023-05-10T04:44:53.230Z,17.30
2023-05-10T04:47:24.584Z,18.60
2023-05-10T04:49:55.601Z,19.23
2023-05-10T04:52:29.130Z,22.03
2023-05-10T04:55:00.225Z,22.73
2023-05-10T04:57:31.229Z,26.17
2023-05-10T05:00:03.527Z,26.93
2023-05-10T05:02:34.585Z,27.03
2023-05-10T05:05:05.696Z,29.43
2023-05-10T05:07:39.475Z,33.87
2023-05-10T05:10:12.209Z,33.60
2023-05-10T05:12:43.325Z,30.87
2023-05-10T05:15:16.342Z,30.40
2023-05-10T05:17:47.374Z,31.90
2023-05-10T05:20:20.155Z,31.67
2023-05-10T05:22:53.659Z,29.63
2023-05-10T05:25:24.850Z,38.00
2023-05-10T05:27:55.791Z,33.57
2023-05-10T05:30:26.751Z,37.20
2023-05-10T05:32:57.827Z,33.83
2023-05-10T05:35:29.086Z,33.00
2023-05-10T05:38:02.849Z,36.77
2023-05-10T05:40:33.755Z,33.80
2023-05-10T05:43:04.645Z,34.50
2023-05-10T05:45:35.541Z,31.20
2023-05-10T05:48:07.524Z,33.70
2023-05-10T05:50:38.542Z,39.93
2023-05-10T05:53:12.969Z,36.27
2023-05-10T05:55:43.903Z,36.60
2023-05-10T05:58:14.863Z,32.93
2023-05-10T06:00:46.111Z,38.03
2023-05-10T06:03:17.066Z,36.07
2023-05-10T06:05:48.147Z,35.90
2023-05-10T06:08:21.609Z,34.90
2023-05-10T06:10:54.506Z,38.57
2023-05-10T06:13:25.576Z,42.80
2023-05-10T06:15:56.502Z,45.53
2023-05-10T06:18:27.683Z,39.70
2023-05-10T06:20:58.558Z,39.70
2023-05-10T06:23:32.021Z,39.50
2023-05-10T06:26:02.870Z,37.40
2023-05-10T06:28:34.831Z,41.13
2023-05-10T06:31:05.748Z,40.20
2023-05-10T06:33:36.794Z,34.83
2023-05-10T06:36:08.060Z,38.87
2023-05-10T06:38:41.859Z,37.90
2023-05-10T06:41:12.722Z,42.33
2023-05-10T06:43:44.487Z,40.83
2023-05-10T06:46:15.855Z,37.90
2023-05-10T06:48:47.071Z,37.13
2023-05-10T06:51:18.752Z,41.03
2023-05-10T06:53:54.221Z,39.63
2023-05-10T06:56:25.179Z,39.23
2023-05-10T06:58:59.062Z,35.37
2023-05-10T07:01:31.917Z,37.20
2023-05-10T07:04:07.845Z,36.43
2023-05-10T07:06:48.240Z,35.07
2023-05-10T07:09:26.292Z,34.37
2023-05-10T07:12:02.080Z,33.53
2023-05-10T07:14:39.713Z,28.63
2023-05-10T07:17:16.020Z,26.60
2023-05-10T07:19:55.593Z,28.57
2023-05-10T07:22:26.474Z,25.97
2023-05-10T07:25:10.418Z,23.93
2023-05-10T07:27:53.594Z,26.27
2023-05-10T07:30:27.299Z,28.63
2023-05-10T07:40:35.518Z,28.83
2023-05-10T07:43:07.723Z,24.57
2023-05-10T07:45:44.927Z,23.90
2023-05-10T07:48:52.878Z,25.20
2023-05-10T07:58:28.217Z,25.10
2023-05-10T08:00:59.335Z,23.00
2023-05-10T08:03:33.040Z,26.80
2023-05-10T08:06:07.355Z,27.87
2023-05-10T08:08:40.979Z,27.17
2023-05-10T08:11:18.633Z,24.67
2023-05-10T08:13:58.568Z,29.23
2023-05-10T08:16:30.101Z,30.00
2023-05-10T08:19:57.491Z,28.70
2023-05-10T08:22:51.934Z,32.47
2023-05-10T08:25:41.739Z,35.03
2023-05-10T08:28:12.874Z,30.80
2023-05-10T08:30:46.656Z,29.03
2023-05-10T08:33:18.084Z,30.27
2023-05-10T08:36:03.235Z,28.30
2023-05-10T08:38:37.081Z,27.60
2023-05-10T08:42:13.522Z,26.83
2023-05-10T08:45:53.364Z,30.40
2023-05-10T08:48:31.166Z,32.30
2023-05-10T08:51:04.372Z,30.10
2023-05-10T08:53:37.103Z,29.10
2023-05-10T08:56:09.016Z,26.80
2023-05-10T08:58:40.555Z,29.93
2023-05-10T09:01:12.544Z,29.97
2023-05-10T09:03:47.038Z,26.60
2023-05-10T09:06:18.120Z,28.07
2023-05-10T09:08:49.599Z,29.37
2023-05-10T09:11:21.296Z,29.47
2023-05-10T09:13:54.504Z,34.30
2023-05-10T09:16:28.727Z,32.80
2023-05-10T09:19:02.446Z,28.87
2023-05-10T09:21:34.363Z,28.43
2023-05-10T09:24:08.443Z,27.20
2023-05-10T09:26:49.359Z,30.77
2023-05-10T09:29:20.411Z,24.40
2023-05-10T09:31:55.966Z,32.73
2023-05-10T09:34:37.687Z,23.77
2023-05-10T09:37:10.627Z,20.73
2023-05-10T09:39:42.487Z,21.60
2023-05-10T09:42:14.308Z,21.30
2023-05-10T09:44:49.041Z,18.10
2023-05-10T09:47:21.718Z,21.30
2023-05-10T09:50:03.940Z,22.40
2023-05-10T09:52:34.810Z,15.37
2023-05-10T09:55:06.279Z,15.20
2023-05-10T09:57:37.254Z,14.50
2023-05-10T10:00:11.989Z,15.10
2023-05-10T10:02:44.972Z,12.63
2023-05-10T10:05:19.068Z,12.60
2023-05-10T10:07:53.940Z,14.80
2023-05-10T10:10:25.325Z,12.17
2023-05-10T10:12:59.759Z,12.27
2023-05-10T10:15:30.675Z,13.80
2023-05-10T10:18:01.664Z,11.70
2023-05-10T10:20:35.640Z,10.37
2023-05-10T10:23:06.466Z,11.80
2023-05-10T10:25:37.541Z,11.20
2023-05-10T10:28:18.271Z,10.00
2023-05-10T10:30:54.030Z,11.27
2023-05-10T10:33:48.440Z,12.30
2023-05-10T10:36:24.513Z,12.77
2023-05-10T10:39:05.249Z,11.43
2023-05-10T10:41:37.741Z,13.37
2023-05-10T10:44:30.626Z,14.20
2023-05-10T10:47:12.923Z,13.43
2023-05-10T10:49:52.755Z,13.87
2023-05-10T10:52:34.146Z,14.50
2023-05-10T10:55:10.322Z,14.70
2023-05-10T10:57:49.541Z,17.07
2023-05-10T11:00:29.014Z,20.10
2023-05-10T11:03:04.041Z,21.23
2023-05-10T11:05:45.062Z,22.40
2023-05-10T11:08:20.991Z,19.57
2023-05-10T11:10:57.418Z,17.60
2023-05-10T11:13:34.410Z,19.40
2023-05-10T11:16:18.273Z,15.37
2023-05-10T11:19:03.732Z,17.10
2023-05-10T11:21:35.749Z,14.90
2023-05-10T11:24:17.770Z,13.50
2023-05-10T11:26:49.147Z,13.50
2023-05-10T11:29:20.322Z,14.57
2023-05-10T11:31:52.293Z,15.50
2023-05-10T11:34:31.389Z,15.73
2023-05-10T11:37:03.620Z,18.57
2023-05-10T11:39:37.257Z,17.63
2023-05-10T11:42:13.304Z,17.47
2023-05-10T11:44:46.824Z,17.33
2023-05-10T11:47:17.690Z,18.43
2023-05-10T11:49:48.728Z,17.13
2023-05-10T11:52:19.545Z,18.50
2023-05-10T11:54:57.451Z,15.20
2023-05-10T11:57:32.344Z,14.57
2023-05-10T12:00:04.902Z,16.30
2023-05-10T12:02:36.224Z,18.60
2023-05-10T12:05:08.956Z,14.13
2023-05-10T12:07:40.005Z,14.30
2023-05-10T12:10:16.118Z,21.00
2023-05-10T12:12:49.244Z,14.60
2023-05-10T12:15:23.108Z,15.03
2023-05-10T12:17:54.826Z,19.30
2023-05-10T12:20:27.848Z,13.10
2023-05-10T12:23:03.072Z,12.10
2023-05-10T12:25:38.008Z,13.80
2023-05-10T12:28:10.929Z,14.40
2023-05-10T12:30:42.417Z,13.20
2023-05-10T12:33:16.141Z,11.97
2023-05-10T12:35:52.337Z,10.33
2023-05-10T12:38:35.968Z,12.23
2023-05-10T12:41:11.368Z,13.43
2023-05-10T12:43:43.158Z,11.03
2023-05-10T12:46:18.666Z,12.73
2023-05-10T12:49:07.596Z,11.57
2023-05-10T12:51:39.671Z,10.63
2023-05-10T12:54:10.925Z,12.70
2023-05-10T12:56:44.592Z,9.93
2023-05-10T12:59:15.476Z,13.10
2023-05-10T13:01:46.443Z,10.83
2023-05-10T13:04:17.338Z,13.80
2023-05-10T13:06:48.448Z,12.13
2023-05-10T13:09:20.065Z,11.93
2023-05-10T13:11:54.589Z,11.90
2023-05-10T13:14:25.700Z,14.53
2023-05-10T13:16:59.910Z,13.03
2023-05-10T13:19:30.959Z,11.60
2023-05-10T13:22:01.787Z,12.00
2023-05-10T13:24:34.368Z,11.97
2023-05-10T13:27:07.797Z,13.83
2023-05-10T13:29:38.653Z,12.87
2023-05-10T13:32:09.913Z,13.27
2023-05-10T13:34:41.105Z,14.00
2023-05-10T13:37:11.950Z,13.50
2023-05-10T13:39:42.898Z,12.90
2023-05-10T13:42:36.241Z,12.30
2023-05-10T13:45:08.304Z,10.83
2023-05-10T13:47:39.222Z,10.97
2023-05-10T13:50:11.242Z,10.27
2023-05-10T13:52:44.792Z,11.60
2023-05-10T13:55:16.676Z,12.63
2023-05-10T13:57:50.370Z,12.33
2023-05-10T14:00:22.132Z,11.67
2023-05-10T14:02:53.293Z,10.00
2023-05-10T14:05:26.306Z,7.43
2023-05-10T14:07:58.376Z,7.80
2023-05-10T14:10:30.076Z,8.50
2023-05-10T14:13:04.809Z,6.73
2023-05-10T14:15:35.724Z,5.80
2023-05-10T14:18:06.890Z,6.23
2023-05-10T14:20:37.871Z,4.63
2023-05-10T14:23:10.465Z,5.17
2023-05-10T14:25:43.840Z,5.97
2023-05-10T14:28:19.537Z,6.43
2023-05-10T14:30:50.687Z,6.43
2023-05-10T14:33:21.949Z,5.30
2023-05-10T14:35:53.350Z,6.70
2023-05-10T14:38:24.518Z,5.90
2023-05-10T14:40:55.830Z,4.70
2023-05-10T14:43:29.269Z,6.10
2023-05-10T14:46:00.113Z,5.23
2023-05-10T14:48:31.104Z,5.80
2023-05-10T14:51:01.972Z,5.30
2023-05-10T14:53:33.678Z,4.43
2023-05-10T14:56:05.028Z,3.70
2023-05-10T14:58:38.638Z,4.43
2023-05-10T15:01:09.704Z,3.80
2023-05-10T15:03:41.044Z,5.07
2023-05-10T15:06:12.702Z,3.80
2023-05-10T15:08:43.473Z,3.77
2023-05-10T15:11:15.303Z,4.23
2023-05-10T15:13:48.672Z,5.43
2023-05-10T15:16:19.520Z,3.70
2023-05-10T15:18:50.439Z,4.10
2023-05-10T15:21:21.396Z,4.50
2023-05-10T15:23:52.209Z,4.27
2023-05-10T15:26:23.236Z,5.80
2023-05-10T15:28:56.724Z,4.60
2023-05-10T15:31:30.726Z,6.47
2023-05-10T15:34:02.555Z,5.93
2023-05-10T15:36:35.278Z,4.23
2023-05-10T15:39:06.862Z,4.40
2023-05-10T15:41:38.060Z,4.93
2023-05-10T15:44:12.080Z,7.50
2023-05-10T15:46:43.220Z,4.90
2023-05-10T15:49:14.287Z,5.00
2023-05-10T15:51:45.113Z,5.53
2023-05-10T15:54:18.744Z,5.80
2023-05-10T15:56:49.745Z,5.27
2023-05-10T15:59:23.388Z,5.20
2023-05-10T16:01:54.850Z,6.30
2023-05-10T16:04:26.494Z,6.03
2023-05-10T16:06:57.333Z,4.93
2023-05-10T16:09:28.323Z,5.90
2023-05-10T16:11:59.687Z,5.97
2023-05-10T16:14:33.123Z,5.20
2023-05-10T16:17:04.938Z,6.13
2023-05-10T16:19:35.990Z,10.33
2023-05-10T16:22:06.861Z,5.70
2023-05-10T16:24:37.728Z,5.37
2023-05-10T16:27:08.567Z,6.50
2023-05-10T16:29:42.230Z,7.17
2023-05-10T16:32:13.109Z,7.70
2023-05-10T16:34:44.110Z,9.20
2023-05-10T16:37:14.983Z,8.00
2023-05-10T16:39:45.805Z,9.50
2023-05-10T16:42:18.164Z,6.63
2023-05-10T16:44:51.617Z,7.67
2023-05-10T16:47:23.414Z,7.10
2023-05-10T16:49:54.329Z,7.03
2023-05-10T16:52:25.165Z,7.40
2023-05-10T16:54:57.460Z,8.57
2023-05-10T16:57:28.513Z,9.57
2023-05-10T17:00:02.002Z,9.20
2023-05-10T17:02:32.956Z,9.40
2023-05-10T17:05:03.956Z,10.07
2023-05-10T17:07:34.849Z,10.93
2023-05-10T17:10:05.689Z,10.27
2023-05-10T17:12:36.570Z,9.80
2023-05-10T17:15:12.650Z,11.40
2023-05-10T17:17:43.598Z,10.40
2023-05-10T17:20:15.035Z,10.77
2023-05-10T17:22:46.153Z,11.33
2023-05-10T17:25:17.359Z,11.90
2023-05-10T17:27:48.414Z,11.90
2023-05-10T17:30:27.598Z,12.00
2023-05-10T17:32:58.577Z,12.27
2023-05-10T17:35:33.306Z,14.73
2023-05-10T17:38:04.364Z,12.10
2023-05-10T17:40:35.451Z,12.43
2023-05-10T17:43:06.294Z,14.23
2023-05-10T17:45:39.784Z,14.13
2023-05-10T17:48:11.581Z,19.23
2023-05-10T17:50:46.272Z,19.57
2023-05-10T17:53:17.218Z,19.73
2023-05-10T17:55:48.132Z,20.27
2023-05-10T17:58:18.983Z,18.70
2023-05-10T18:00:52.804Z,17.73
2023-05-10T18:03:23.949Z,19.53
2023-05-10T18:05:55.462Z,19.60
2023-05-10T18:08:28.872Z,16.80
2023-05-10T18:10:59.784Z,18.30
2023-05-10T18:13:30.670Z,19.00
2023-05-10T18:16:05.821Z,17.77
2023-05-10T18:18:36.950Z,17.97
2023-05-10T18:21:08.291Z,17.30
2023-05-10T18:23:39.250Z,18.10
2023-05-10T18:26:11.066Z,18.80
2023-05-10T18:28:43.863Z,19.07
2023-05-10T18:31:17.491Z,16.73
2023-05-10T18:33:48.557Z,21.90
2023-05-10T18:36:19.625Z,21.00
2023-05-10T18:38:50.659Z,17.73
2023-05-10T18:41:21.639Z,20.60
2023-05-10T18:43:52.609Z,23.37
2023-05-10T18:46:26.227Z,21.33
2023-05-10T18:48:57.432Z,21.70
2023-05-10T18:51:29.766Z,20.07
2023-05-10T18:54:04.326Z,23.00
2023-05-10T18:56:35.237Z,21.37
2023-05-10T18:59:07.529Z,23.50
2023-05-10T19:01:41.132Z,21.83
2023-05-10T19:04:12.474Z,22.90
2023-05-10T19:06:44.006Z,20.70
2023-05-10T19:09:15.058Z,21.73
2023-05-10T19:11:46.005Z,21.97
2023-05-10T19:14:16.969Z,21.77
2023-05-10T19:16:55.277Z,25.63
2023-05-10T19:19:26.284Z,22.00
2023-05-10T19:21:57.176Z,25.73
2023-05-10T19:24:28.217Z,28.07
2023-05-10T19:26:59.128Z,21.00
2023-05-10T19:29:30.244Z,22.60
2023-05-10T19:32:03.910Z,20.60
2023-05-10T19:34:35.152Z,17.50
2023-05-10T19:37:06.205Z,20.27
2023-05-10T19:39:37.337Z,15.37
2023-05-10T19:42:08.618Z,14.90
2023-05-10T19:44:39.559Z,15.20
2023-05-10T19:47:13.220Z,16.30
2023-05-10T19:49:44.231Z,15.90
2023-05-10T19:52:15.512Z,14.57
2023-05-10T19:54:48.089Z,14.40
2023-05-10T19:57:19.175Z,15.60
2023-05-10T19:59:50.131Z,14.40
2023-05-10T20:02:23.820Z,16.37
2023-05-10T20:04:54.737Z,15.50
2023-05-10T20:07:26.073Z,13.90
2023-05-10T20:09:57.001Z,13.30
2023-05-10T20:12:28.950Z,12.47
2023-05-10T20:15:00.041Z,12.20
2023-05-10T20:17:33.696Z,13.07
2023-05-10T20:20:05.282Z,12.50
2023-05-10T20:22:36.477Z,11.77
2023-05-10T20:25:11.395Z,13.60
2023-05-10T20:27:42.425Z,12.47
2023-05-10T20:30:18.082Z,12.13
2023-05-10T20:32:52.051Z,13.27
2023-05-10T20:35:23.079Z,13.70
2023-05-10T20:37:54.003Z,13.73
2023-05-10T20:40:25.140Z,15.60
2023-05-10T20:42:56.679Z,11.67
2023-05-10T20:45:27.680Z,15.70
2023-05-10T20:48:01.321Z,13.30
2023-05-10T20:50:32.351Z,16.80
2023-05-10T20:53:04.300Z,14.33
2023-05-10T20:55:35.253Z,15.27
2023-05-10T20:58:06.473Z,14.40
2023-05-10T21:00:37.440Z,17.00
2023-05-10T21:03:11.404Z,18.80
2023-05-10T21:05:42.481Z,17.80
2023-05-10T21:08:13.483Z,16.27
2023-05-10T21:10:44.532Z,16.97
2023-05-10T21:13:18.817Z,18.43
2023-05-10T21:15:50.148Z,20.90
2023-05-10T21:18:23.772Z,20.67
2023-05-10T21:20:54.761Z,18.53
2023-05-10T21:23:25.690Z,19.50
2023-05-10T21:25:56.580Z,18.40
2023-05-10T21:28:27.822Z,20.50
2023-05-10T21:30:58.792Z,23.73
2023-05-10T21:33:32.711Z,22.40
2023-05-10T21:36:03.641Z,24.33
2023-05-10T21:38:35.714Z,22.57
2023-05-10T21:41:09.797Z,24.03
2023-05-10T21:43:40.675Z,23.10
2023-05-10T21:46:13.378Z,25.40
2023-05-10T21:48:47.070Z,25.60
2023-05-10T21:51:18.088Z,26.20
2023-05-10T21:53:48.975Z,27.23
2023-05-10T21:56:19.920Z,24.73
2023-05-10T21:58:50.816Z,26.73
2023-05-10T22:01:21.822Z,27.03
2023-05-10T22:03:55.396Z,25.43
2023-05-10T22:06:26.210Z,26.33
2023-05-10T22:08:57.264Z,26.93
2023-05-10T22:11:28.400Z,25.13
2023-05-10T22:13:59.752Z,32.13
2023-05-10T22:16:33.931Z,26.23
2023-05-10T22:19:13.442Z,29.03
2023-05-10T22:21:50.493Z,29.30
2023-05-10T22:24:21.844Z,33.60
2023-05-10T22:26:57.069Z,26.73
2023-05-10T22:29:28.589Z,28.97
2023-05-10T22:31:59.782Z,23.47
2023-05-10T22:34:33.636Z,24.03
2023-05-10T22:37:05.520Z,24.77
2023-05-10T22:39:36.496Z,26.37
2023-05-10T22:42:08.200Z,25.17
2023-05-10T22:44:39.138Z,24.60
2023-05-10T22:47:13.134Z,23.53
2023-05-10T22:49:47.142Z,26.20
2023-05-10T22:52:19.211Z,27.23
2023-05-10T22:54:50.261Z,24.60
2023-05-10T22:57:21.183Z,25.60
2023-05-10T22:59:52.190Z,27.33
2023-05-10T23:02:23.242Z,26.67
2023-05-10T23:04:57.272Z,27.93
2023-05-10T23:07:28.237Z,29.13
2023-05-10T23:09:59.238Z,29.37
2023-05-10T23:12:31.432Z,31.10
2023-05-10T23:15:02.395Z,30.47
2023-05-10T23:17:33.293Z,27.03
2023-05-10T23:20:07.223Z,33.40
2023-05-10T23:22:38.072Z,31.33
2023-05-10T23:25:10.421Z,29.00
2023-05-10T23:27:41.416Z,28.90
2023-05-10T23:30:14.334Z,30.20
2023-05-10T23:32:45.578Z,26.77
2023-05-10T23:35:19.394Z,31.40
2023-05-10T23:37:50.293Z,35.73
2023-05-10T23:40:21.377Z,31.23
2023-05-10T23:42:54.708Z,35.80
2023-05-10T23:45:25.923Z,32.37
2023-05-10T23:47:57.081Z,29.27
2023-05-10T23:50:30.680Z,28.47
2023-05-10T23:53:02.118Z,29.67
2023-05-10T23:55:32.993Z,33.20
2023-05-10T23:58:03.888Z,33.77
